sensor_id;sensor_type;location;lat;lon;timestamp;P1;durP1;ratioP1;P2;durP2;ratioP2
53710;SDS011;39605;52.704;6.752;2023-07-31T00:00:50;1.35;;;0.50;;
53710;SDS011;39605;52.704;6.752;2023-07-31T00:03:16;2.30;;;0.60;;
53710;SDS011;39605;52.704;6.752;2023-07-31T00:05:42;1.70;;;0.50;;
53710;SDS011;39605;52.704;6.752;2023-07-31T00:08:09;0.82;;;0.45;;
53710;SDS011;39605;52.704;6.752;2023-07-31T00:10:35;1.10;;;0.50;;
53710;SDS011;39605;52.704;6.752;2023-07-31T00:13:01;1.45;;;0.50;;
53710;SDS011;39605;52.704;6.752;2023-07-31T00:15:27;2.28;;;0.50;;
53710;SDS011;39605;52.704;6.752;2023-07-31T00:17:53;1.63;;;0.80;;
53710;SDS011;39605;52.704;6.752;2023-07-31T00:20:19;1.42;;;0.40;;
53710;SDS011;39605;52.704;6.752;2023-07-31T00:22:46;1.10;;;0.50;;
53710;SDS011;39605;52.704;6.752;2023-07-31T00:25:12;1.40;;;0.60;;
53710;SDS011;39605;52.704;6.752;2023-07-31T00:27:38;1.40;;;0.50;;
53710;SDS011;39605;52.704;6.752;2023-07-31T00:30:04;1.70;;;0.60;;
53710;SDS011;39605;52.704;6.752;2023-07-31T00:32:30;2.13;;;0.47;;
53710;SDS011;39605;52.704;6.752;2023-07-31T00:34:56;1.33;;;0.52;;
53710;SDS011;39605;52.704;6.752;2023-07-31T00:37:22;1.40;;;0.55;;
53710;SDS011;39605;52.704;6.752;2023-07-31T00:39:48;1.00;;;0.43;;
53710;SDS011;39605;52.704;6.752;2023-07-31T00:42:14;0.77;;;0.50;;
53710;SDS011;39605;52.704;6.752;2023-07-31T00:44:41;0.80;;;0.45;;
53710;SDS011;39605;52.704;6.752;2023-07-31T00:47:07;2.15;;;0.50;;
53710;SDS011;39605;52.704;6.752;2023-07-31T00:49:33;1.10;;;0.47;;
53710;SDS011;39605;52.704;6.752;2023-07-31T00:51:59;0.93;;;0.60;;
53710;SDS011;39605;52.704;6.752;2023-07-31T00:54:25;1.85;;;0.45;;
53710;SDS011;39605;52.704;6.752;2023-07-31T00:56:52;0.50;;;0.40;;
53710;SDS011;39605;52.704;6.752;2023-07-31T00:59:18;1.55;;;0.40;;
53710;SDS011;39605;52.704;6.752;2023-07-31T01:01:44;1.25;;;0.50;;
53710;SDS011;39605;52.704;6.752;2023-07-31T01:04:11;0.80;;;0.43;;
53710;SDS011;39605;52.704;6.752;2023-07-31T01:09:11;0.88;;;0.47;;
53710;SDS011;39605;52.704;6.752;2023-07-31T01:12:00;0.85;;;0.40;;
53710;SDS011;39605;52.704;6.752;2023-07-31T01:14:27;0.55;;;0.30;;
53710;SDS011;39605;52.704;6.752;2023-07-31T01:16:53;1.55;;;0.30;;
53710;SDS011;39605;52.704;6.752;2023-07-31T01:19:21;0.60;;;0.30;;
53710;SDS011;39605;52.704;6.752;2023-07-31T01:24:37;0.43;;;0.20;;
53710;SDS011;39605;52.704;6.752;2023-07-31T01:27:17;0.55;;;0.20;;
53710;SDS011;39605;52.704;6.752;2023-07-31T01:29:49;0.55;;;0.20;;
53710;SDS011;39605;52.704;6.752;2023-07-31T01:32:17;0.40;;;0.20;;
53710;SDS011;39605;52.704;6.752;2023-07-31T01:34:43;0.30;;;0.20;;
53710;SDS011;39605;52.704;6.752;2023-07-31T01:37:10;0.60;;;0.30;;
53710;SDS011;39605;52.704;6.752;2023-07-31T01:39:36;0.50;;;0.20;;
53710;SDS011;39605;52.704;6.752;2023-07-31T01:42:02;0.40;;;0.20;;
53710;SDS011;39605;52.704;6.752;2023-07-31T01:44:28;0.55;;;0.20;;
53710;SDS011;39605;52.704;6.752;2023-07-31T01:46:54;0.50;;;0.20;;
53710;SDS011;39605;52.704;6.752;2023-07-31T01:49:20;0.40;;;0.20;;
53710;SDS011;39605;52.704;6.752;2023-07-31T01:51:46;0.50;;;0.20;;
53710;SDS011;39605;52.704;6.752;2023-07-31T01:54:12;0.50;;;0.30;;
53710;SDS011;39605;52.704;6.752;2023-07-31T01:56:38;0.88;;;0.20;;
53710;SDS011;39605;52.704;6.752;2023-07-31T01:59:04;0.32;;;0.20;;
53710;SDS011;39605;52.704;6.752;2023-07-31T02:01:30;0.25;;;0.20;;
53710;SDS011;39605;52.704;6.752;2023-07-31T02:03:56;1.05;;;0.20;;
53710;SDS011;39605;52.704;6.752;2023-07-31T02:06:22;1.65;;;0.20;;
53710;SDS011;39605;52.704;6.752;2023-07-31T02:08:49;0.40;;;0.20;;
53710;SDS011;39605;52.704;6.752;2023-07-31T02:11:15;0.30;;;0.20;;
53710;SDS011;39605;52.704;6.752;2023-07-31T02:13:41;0.40;;;0.15;;
53710;SDS011;39605;52.704;6.752;2023-07-31T02:16:07;0.32;;;0.20;;
53710;SDS011;39605;52.704;6.752;2023-07-31T02:18:33;0.30;;;0.20;;
53710;SDS011;39605;52.704;6.752;2023-07-31T02:20:59;0.65;;;0.20;;
53710;SDS011;39605;52.704;6.752;2023-07-31T02:23:25;1.05;;;0.10;;
53710;SDS011;39605;52.704;6.752;2023-07-31T02:25:51;0.28;;;0.20;;
53710;SDS011;39605;52.704;6.752;2023-07-31T02:28:17;0.82;;;0.22;;
53710;SDS011;39605;52.704;6.752;2023-07-31T02:30:44;0.30;;;0.20;;
53710;SDS011;39605;52.704;6.752;2023-07-31T02:33:11;1.17;;;0.30;;
53710;SDS011;39605;52.704;6.752;2023-07-31T02:35:37;0.40;;;0.20;;
53710;SDS011;39605;52.704;6.752;2023-07-31T02:38:03;0.90;;;0.20;;
53710;SDS011;39605;52.704;6.752;2023-07-31T02:40:29;0.50;;;0.20;;
53710;SDS011;39605;52.704;6.752;2023-07-31T02:42:55;0.93;;;0.20;;
53710;SDS011;39605;52.704;6.752;2023-07-31T02:45:21;0.93;;;0.20;;
53710;SDS011;39605;52.704;6.752;2023-07-31T02:47:47;0.63;;;0.20;;
53710;SDS011;39605;52.704;6.752;2023-07-31T02:50:13;0.32;;;0.20;;
53710;SDS011;39605;52.704;6.752;2023-07-31T02:52:39;1.15;;;0.20;;
53710;SDS011;39605;52.704;6.752;2023-07-31T02:55:06;1.13;;;0.20;;
53710;SDS011;39605;52.704;6.752;2023-07-31T02:57:32;0.57;;;0.30;;
53710;SDS011;39605;52.704;6.752;2023-07-31T02:59:58;0.75;;;0.30;;
53710;SDS011;39605;52.704;6.752;2023-07-31T03:02:24;0.52;;;0.30;;
53710;SDS011;39605;52.704;6.752;2023-07-31T03:04:50;0.90;;;0.40;;
53710;SDS011;39605;52.704;6.752;2023-07-31T03:07:16;0.40;;;0.30;;
53710;SDS011;39605;52.704;6.752;2023-07-31T03:09:42;2.50;;;0.30;;
53710;SDS011;39605;52.704;6.752;2023-07-31T03:12:09;0.38;;;0.20;;
53710;SDS011;39605;52.704;6.752;2023-07-31T03:14:35;0.30;;;0.20;;
53710;SDS011;39605;52.704;6.752;2023-07-31T03:17:01;0.50;;;0.20;;
53710;SDS011;39605;52.704;6.752;2023-07-31T03:19:29;0.43;;;0.20;;
53710;SDS011;39605;52.704;6.752;2023-07-31T03:21:55;0.28;;;0.20;;
53710;SDS011;39605;52.704;6.752;2023-07-31T03:24:21;2.38;;;0.20;;
53710;SDS011;39605;52.704;6.752;2023-07-31T03:26:48;0.55;;;0.20;;
53710;SDS011;39605;52.704;6.752;2023-07-31T03:29:14;0.82;;;0.30;;
53710;SDS011;39605;52.704;6.752;2023-07-31T03:31:40;1.48;;;0.20;;
53710;SDS011;39605;52.704;6.752;2023-07-31T03:34:06;0.65;;;0.20;;
53710;SDS011;39605;52.704;6.752;2023-07-31T03:36:32;0.85;;;0.20;;
53710;SDS011;39605;52.704;6.752;2023-07-31T03:38:58;0.40;;;0.20;;
53710;SDS011;39605;52.704;6.752;2023-07-31T03:41:24;0.90;;;0.20;;
53710;SDS011;39605;52.704;6.752;2023-07-31T03:43:51;0.60;;;0.20;;
53710;SDS011;39605;52.704;6.752;2023-07-31T03:46:17;0.52;;;0.20;;
53710;SDS011;39605;52.704;6.752;2023-07-31T03:48:43;0.65;;;0.20;;
53710;SDS011;39605;52.704;6.752;2023-07-31T03:51:09;1.05;;;0.20;;
53710;SDS011;39605;52.704;6.752;2023-07-31T03:53:35;0.47;;;0.10;;
53710;SDS011;39605;52.704;6.752;2023-07-31T03:56:02;0.20;;;0.15;;
53710;SDS011;39605;52.704;6.752;2023-07-31T03:58:28;0.40;;;0.20;;
53710;SDS011;39605;52.704;6.752;2023-07-31T04:00:54;0.35;;;0.10;;
53710;SDS011;39605;52.704;6.752;2023-07-31T04:03:20;0.60;;;0.20;;
53710;SDS011;39605;52.704;6.752;2023-07-31T04:05:46;1.65;;;0.20;;
53710;SDS011;39605;52.704;6.752;2023-07-31T04:08:12;1.25;;;0.43;;
53710;SDS011;39605;52.704;6.752;2023-07-31T04:10:38;1.23;;;0.20;;
53710;SDS011;39605;52.704;6.752;2023-07-31T04:13:04;1.27;;;0.10;;
53710;SDS011;39605;52.704;6.752;2023-07-31T04:15:30;0.30;;;0.10;;
53710;SDS011;39605;52.704;6.752;2023-07-31T04:17:56;0.90;;;0.30;;
53710;SDS011;39605;52.704;6.752;2023-07-31T04:20:22;0.90;;;0.20;;
53710;SDS011;39605;52.704;6.752;2023-07-31T04:22:49;1.83;;;0.20;;
53710;SDS011;39605;52.704;6.752;2023-07-31T04:25:15;1.17;;;0.20;;
53710;SDS011;39605;52.704;6.752;2023-07-31T04:27:41;0.55;;;0.20;;
53710;SDS011;39605;52.704;6.752;2023-07-31T04:30:07;0.95;;;0.40;;
53710;SDS011;39605;52.704;6.752;2023-07-31T04:32:33;1.60;;;0.50;;
53710;SDS011;39605;52.704;6.752;2023-07-31T04:35:00;4.53;;;1.48;;
53710;SDS011;39605;52.704;6.752;2023-07-31T04:37:27;5.97;;;1.70;;
53710;SDS011;39605;52.704;6.752;2023-07-31T04:39:53;6.38;;;3.00;;
53710;SDS011;39605;52.704;6.752;2023-07-31T04:42:19;8.70;;;3.78;;
53710;SDS011;39605;52.704;6.752;2023-07-31T04:44:45;10.90;;;3.80;;
53710;SDS011;39605;52.704;6.752;2023-07-31T04:47:11;10.48;;;3.80;;
53710;SDS011;39605;52.704;6.752;2023-07-31T04:49:37;10.32;;;4.40;;
53710;SDS011;39605;52.704;6.752;2023-07-31T04:52:03;9.63;;;4.47;;
53710;SDS011;39605;52.704;6.752;2023-07-31T04:54:29;12.68;;;4.97;;
53710;SDS011;39605;52.704;6.752;2023-07-31T04:56:55;13.52;;;5.95;;
53710;SDS011;39605;52.704;6.752;2023-07-31T04:59:21;12.20;;;5.25;;
53710;SDS011;39605;52.704;6.752;2023-07-31T05:01:48;14.25;;;5.28;;
53710;SDS011;39605;52.704;6.752;2023-07-31T05:04:14;12.38;;;5.32;;
53710;SDS011;39605;52.704;6.752;2023-07-31T05:06:40;12.80;;;5.22;;
53710;SDS011;39605;52.704;6.752;2023-07-31T05:09:07;12.77;;;5.30;;
53710;SDS011;39605;52.704;6.752;2023-07-31T05:11:34;15.93;;;5.78;;
53710;SDS011;39605;52.704;6.752;2023-07-31T05:14:00;14.80;;;5.88;;
53710;SDS011;39605;52.704;6.752;2023-07-31T05:16:26;17.25;;;6.25;;
53710;SDS011;39605;52.704;6.752;2023-07-31T05:18:52;18.00;;;6.40;;
53710;SDS011;39605;52.704;6.752;2023-07-31T05:21:18;14.18;;;6.38;;
53710;SDS011;39605;52.704;6.752;2023-07-31T05:23:45;18.50;;;6.47;;
53710;SDS011;39605;52.704;6.752;2023-07-31T05:26:12;15.73;;;6.45;;
53710;SDS011;39605;52.704;6.752;2023-07-31T05:28:38;23.38;;;7.00;;
53710;SDS011;39605;52.704;6.752;2023-07-31T05:31:05;21.23;;;7.13;;
53710;SDS011;39605;52.704;6.752;2023-07-31T05:33:32;21.52;;;7.65;;
53710;SDS011;39605;52.704;6.752;2023-07-31T05:35:58;22.13;;;7.70;;
53710;SDS011;39605;52.704;6.752;2023-07-31T05:38:24;21.60;;;7.50;;
53710;SDS011;39605;52.704;6.752;2023-07-31T05:40:50;19.40;;;7.50;;
53710;SDS011;39605;52.704;6.752;2023-07-31T05:43:16;23.17;;;7.82;;
53710;SDS011;39605;52.704;6.752;2023-07-31T05:45:42;18.42;;;8.60;;
53710;SDS011;39605;52.704;6.752;2023-07-31T05:48:09;21.75;;;7.45;;
53710;SDS011;39605;52.704;6.752;2023-07-31T05:50:35;20.20;;;8.05;;
53710;SDS011;39605;52.704;6.752;2023-07-31T05:53:04;20.52;;;7.95;;
53710;SDS011;39605;52.704;6.752;2023-07-31T05:55:30;24.98;;;9.13;;
53710;SDS011;39605;52.704;6.752;2023-07-31T05:57:56;21.02;;;7.97;;
53710;SDS011;39605;52.704;6.752;2023-07-31T06:00:22;20.60;;;8.88;;
53710;SDS011;39605;52.704;6.752;2023-07-31T06:02:48;24.50;;;9.77;;
53710;SDS011;39605;52.704;6.752;2023-07-31T06:05:14;24.77;;;8.77;;
53710;SDS011;39605;52.704;6.752;2023-07-31T06:07:40;25.38;;;9.75;;
53710;SDS011;39605;52.704;6.752;2023-07-31T06:10:07;20.13;;;9.73;;
53710;SDS011;39605;52.704;6.752;2023-07-31T06:12:33;25.95;;;10.55;;
53710;SDS011;39605;52.704;6.752;2023-07-31T06:15:00;20.63;;;9.15;;
53710;SDS011;39605;52.704;6.752;2023-07-31T06:17:26;16.00;;;9.18;;
53710;SDS011;39605;52.704;6.752;2023-07-31T06:19:52;21.60;;;10.52;;
53710;SDS011;39605;52.704;6.752;2023-07-31T06:22:18;21.15;;;9.85;;
53710;SDS011;39605;52.704;6.752;2023-07-31T06:24:44;21.58;;;9.38;;
53710;SDS011;39605;52.704;6.752;2023-07-31T06:27:10;23.60;;;8.82;;
53710;SDS011;39605;52.704;6.752;2023-07-31T06:29:37;19.15;;;9.38;;
53710;SDS011;39605;52.704;6.752;2023-07-31T06:32:03;21.35;;;9.30;;
53710;SDS011;39605;52.704;6.752;2023-07-31T06:34:29;22.10;;;9.05;;
53710;SDS011;39605;52.704;6.752;2023-07-31T06:37:00;14.68;;;7.90;;
53710;SDS011;39605;52.704;6.752;2023-07-31T06:39:26;21.00;;;8.82;;
53710;SDS011;39605;52.704;6.752;2023-07-31T06:41:53;20.08;;;8.70;;
53710;SDS011;39605;52.704;6.752;2023-07-31T06:44:19;17.55;;;9.18;;
53710;SDS011;39605;52.704;6.752;2023-07-31T06:46:45;18.35;;;9.10;;
53710;SDS011;39605;52.704;6.752;2023-07-31T06:49:11;19.23;;;8.70;;
53710;SDS011;39605;52.704;6.752;2023-07-31T06:51:37;17.25;;;7.70;;
53710;SDS011;39605;52.704;6.752;2023-07-31T06:54:03;16.65;;;7.88;;
53710;SDS011;39605;52.704;6.752;2023-07-31T06:56:29;14.00;;;7.53;;
53710;SDS011;39605;52.704;6.752;2023-07-31T06:58:56;21.83;;;8.13;;
53710;SDS011;39605;52.704;6.752;2023-07-31T07:01:22;15.55;;;6.82;;
53710;SDS011;39605;52.704;6.752;2023-07-31T07:03:48;12.93;;;6.60;;
53710;SDS011;39605;52.704;6.752;2023-07-31T07:06:16;13.45;;;6.65;;
53710;SDS011;39605;52.704;6.752;2023-07-31T07:08:42;13.35;;;5.90;;
53710;SDS011;39605;52.704;6.752;2023-07-31T07:11:08;12.68;;;5.35;;
53710;SDS011;39605;52.704;6.752;2023-07-31T07:13:34;11.55;;;5.60;;
53710;SDS011;39605;52.704;6.752;2023-07-31T07:16:01;14.13;;;5.32;;
53710;SDS011;39605;52.704;6.752;2023-07-31T07:18:27;14.90;;;5.78;;
53710;SDS011;39605;52.704;6.752;2023-07-31T07:20:53;12.98;;;4.88;;
53710;SDS011;39605;52.704;6.752;2023-07-31T07:23:20;11.30;;;5.22;;
53710;SDS011;39605;52.704;6.752;2023-07-31T07:25:46;11.52;;;5.45;;
53710;SDS011;39605;52.704;6.752;2023-07-31T07:28:13;9.10;;;5.40;;
53710;SDS011;39605;52.704;6.752;2023-07-31T07:30:39;9.45;;;5.50;;
53710;SDS011;39605;52.704;6.752;2023-07-31T07:33:05;15.02;;;6.10;;
53710;SDS011;39605;52.704;6.752;2023-07-31T07:35:35;8.85;;;5.13;;
53710;SDS011;39605;52.704;6.752;2023-07-31T07:38:02;11.30;;;4.60;;
53710;SDS011;39605;52.704;6.752;2023-07-31T07:40:28;11.80;;;4.72;;
53710;SDS011;39605;52.704;6.752;2023-07-31T07:42:54;7.60;;;4.95;;
53710;SDS011;39605;52.704;6.752;2023-07-31T07:45:23;7.10;;;4.55;;
53710;SDS011;39605;52.704;6.752;2023-07-31T07:47:50;11.85;;;4.53;;
53710;SDS011;39605;52.704;6.752;2023-07-31T07:50:16;8.88;;;4.22;;
53710;SDS011;39605;52.704;6.752;2023-07-31T07:52:42;6.90;;;3.60;;
53710;SDS011;39605;52.704;6.752;2023-07-31T07:55:08;8.90;;;4.32;;
53710;SDS011;39605;52.704;6.752;2023-07-31T07:57:34;7.57;;;3.70;;
53710;SDS011;39605;52.704;6.752;2023-07-31T08:00:00;6.10;;;3.85;;
53710;SDS011;39605;52.704;6.752;2023-07-31T08:02:26;4.28;;;3.47;;
53710;SDS011;39605;52.704;6.752;2023-07-31T08:04:52;7.53;;;3.42;;
53710;SDS011;39605;52.704;6.752;2023-07-31T08:07:18;4.50;;;2.63;;
53710;SDS011;39605;52.704;6.752;2023-07-31T08:09:44;6.22;;;2.70;;
53710;SDS011;39605;52.704;6.752;2023-07-31T08:12:10;4.82;;;2.33;;
53710;SDS011;39605;52.704;6.752;2023-07-31T08:14:37;2.65;;;1.90;;
53710;SDS011;39605;52.704;6.752;2023-07-31T08:17:03;3.90;;;2.50;;
53710;SDS011;39605;52.704;6.752;2023-07-31T08:19:29;3.22;;;2.05;;
53710;SDS011;39605;52.704;6.752;2023-07-31T08:21:55;4.63;;;2.05;;
53710;SDS011;39605;52.704;6.752;2023-07-31T08:24:21;4.57;;;2.47;;
53710;SDS011;39605;52.704;6.752;2023-07-31T08:26:47;3.30;;;2.05;;
53710;SDS011;39605;52.704;6.752;2023-07-31T08:29:13;2.10;;;1.90;;
53710;SDS011;39605;52.704;6.752;2023-07-31T08:31:39;2.42;;;1.70;;
53710;SDS011;39605;52.704;6.752;2023-07-31T08:34:05;2.65;;;1.45;;
53710;SDS011;39605;52.704;6.752;2023-07-31T08:36:32;2.60;;;1.80;;
53710;SDS011;39605;52.704;6.752;2023-07-31T08:38:58;1.83;;;1.33;;
53710;SDS011;39605;52.704;6.752;2023-07-31T08:41:24;2.65;;;1.35;;
53710;SDS011;39605;52.704;6.752;2023-07-31T08:43:50;1.30;;;1.20;;
53710;SDS011;39605;52.704;6.752;2023-07-31T08:46:17;5.97;;;1.48;;
53710;SDS011;39605;52.704;6.752;2023-07-31T08:48:44;1.67;;;0.85;;
53710;SDS011;39605;52.704;6.752;2023-07-31T08:51:13;1.63;;;1.20;;
53710;SDS011;39605;52.704;6.752;2023-07-31T08:53:39;1.92;;;0.80;;
53710;SDS011;39605;52.704;6.752;2023-07-31T08:56:06;2.15;;;0.70;;
53710;SDS011;39605;52.704;6.752;2023-07-31T08:58:32;1.42;;;0.68;;
53710;SDS011;39605;52.704;6.752;2023-07-31T09:00:59;1.05;;;0.52;;
53710;SDS011;39605;52.704;6.752;2023-07-31T09:03:26;1.33;;;0.70;;
53710;SDS011;39605;52.704;6.752;2023-07-31T09:05:53;1.95;;;0.55;;
53710;SDS011;39605;52.704;6.752;2023-07-31T09:08:21;1.23;;;0.40;;
53710;SDS011;39605;52.704;6.752;2023-07-31T09:10:47;0.90;;;0.77;;
53710;SDS011;39605;52.704;6.752;2023-07-31T09:13:17;0.80;;;0.40;;
53710;SDS011;39605;52.704;6.752;2023-07-31T09:15:44;0.63;;;0.50;;
53710;SDS011;39605;52.704;6.752;2023-07-31T09:18:10;1.33;;;0.30;;
53710;SDS011;39605;52.704;6.752;2023-07-31T09:20:37;0.85;;;0.40;;
53710;SDS011;39605;52.704;6.752;2023-07-31T09:23:10;0.90;;;0.45;;
53710;SDS011;39605;52.704;6.752;2023-07-31T09:25:37;1.10;;;0.47;;
53710;SDS011;39605;52.704;6.752;2023-07-31T09:28:04;0.60;;;0.40;;
53710;SDS011;39605;52.704;6.752;2023-07-31T09:30:30;0.65;;;0.30;;
53710;SDS011;39605;52.704;6.752;2023-07-31T09:33:04;0.60;;;0.38;;
53710;SDS011;39605;52.704;6.752;2023-07-31T09:35:34;0.63;;;0.20;;
53710;SDS011;39605;52.704;6.752;2023-07-31T09:38:03;0.20;;;0.20;;
53710;SDS011;39605;52.704;6.752;2023-07-31T09:40:30;0.68;;;0.20;;
53710;SDS011;39605;52.704;6.752;2023-07-31T09:42:57;0.38;;;0.20;;
53710;SDS011;39605;52.704;6.752;2023-07-31T09:45:24;0.30;;;0.20;;
53710;SDS011;39605;52.704;6.752;2023-07-31T09:47:50;0.20;;;0.20;;
53710;SDS011;39605;52.704;6.752;2023-07-31T09:50:16;0.30;;;0.20;;
53710;SDS011;39605;52.704;6.752;2023-07-31T09:52:43;0.20;;;0.20;;
53710;SDS011;39605;52.704;6.752;2023-07-31T09:55:09;0.32;;;0.20;;
53710;SDS011;39605;52.704;6.752;2023-07-31T09:57:56;0.30;;;0.20;;
53710;SDS011;39605;52.704;6.752;2023-07-31T10:00:21;0.30;;;0.20;;
53710;SDS011;39605;52.704;6.752;2023-07-31T10:02:50;0.70;;;0.35;;
53710;SDS011;39605;52.704;6.752;2023-07-31T10:05:16;0.30;;;0.30;;
53710;SDS011;39605;52.704;6.752;2023-07-31T10:07:45;0.75;;;0.30;;
53710;SDS011;39605;52.704;6.752;2023-07-31T10:10:11;0.40;;;0.30;;
53710;SDS011;39605;52.704;6.752;2023-07-31T10:12:39;0.57;;;0.30;;
53710;SDS011;39605;52.704;6.752;2023-07-31T10:15:05;0.30;;;0.30;;
53710;SDS011;39605;52.704;6.752;2023-07-31T10:17:32;0.50;;;0.40;;
53710;SDS011;39605;52.704;6.752;2023-07-31T10:19:59;0.70;;;0.40;;
53710;SDS011;39605;52.704;6.752;2023-07-31T10:22:26;0.68;;;0.40;;
53710;SDS011;39605;52.704;6.752;2023-07-31T10:24:54;0.85;;;0.40;;
53710;SDS011;39605;52.704;6.752;2023-07-31T10:27:20;0.60;;;0.40;;
53710;SDS011;39605;52.704;6.752;2023-07-31T10:29:46;0.40;;;0.40;;
53710;SDS011;39605;52.704;6.752;2023-07-31T10:32:14;1.35;;;0.32;;
53710;SDS011;39605;52.704;6.752;2023-07-31T10:34:41;0.50;;;0.40;;
53710;SDS011;39605;52.704;6.752;2023-07-31T10:39:55;0.70;;;0.20;;
53710;SDS011;39605;52.704;6.752;2023-07-31T10:42:26;0.45;;;0.40;;
53710;SDS011;39605;52.704;6.752;2023-07-31T10:44:56;0.85;;;0.30;;
53710;SDS011;39605;52.704;6.752;2023-07-31T10:47:22;0.95;;;0.30;;
53710;SDS011;39605;52.704;6.752;2023-07-31T10:49:48;0.40;;;0.30;;
53710;SDS011;39605;52.704;6.752;2023-07-31T10:52:15;2.90;;;0.22;;
53710;SDS011;39605;52.704;6.752;2023-07-31T10:54:48;0.00;;;0.00;;
53710;SDS011;39605;52.704;6.752;2023-07-31T10:57:21;0.10;;;0.00;;
53710;SDS011;39605;52.704;6.752;2023-07-31T10:59:47;0.43;;;0.40;;
53710;SDS011;39605;52.704;6.752;2023-07-31T11:02:23;0.80;;;0.40;;
53710;SDS011;39605;52.704;6.752;2023-07-31T11:05:09;0.45;;;0.40;;
53710;SDS011;39605;52.704;6.752;2023-07-31T11:07:48;0.47;;;0.47;;
53710;SDS011;39605;52.704;6.752;2023-07-31T11:10:18;0.50;;;0.50;;
53710;SDS011;39605;52.704;6.752;2023-07-31T11:12:47;0.52;;;0.50;;
53710;SDS011;39605;52.704;6.752;2023-07-31T11:15:13;0.60;;;0.60;;
53710;SDS011;39605;52.704;6.752;2023-07-31T11:17:39;0.70;;;0.55;;
53710;SDS011;39605;52.704;6.752;2023-07-31T11:20:06;0.40;;;0.40;;
53710;SDS011;39605;52.704;6.752;2023-07-31T11:22:34;0.40;;;0.38;;
53710;SDS011;39605;52.704;6.752;2023-07-31T11:25:02;0.40;;;0.30;;
53710;SDS011;39605;52.704;6.752;2023-07-31T11:27:29;0.22;;;0.22;;
53710;SDS011;39605;52.704;6.752;2023-07-31T11:30:01;0.30;;;0.30;;
53710;SDS011;39605;52.704;6.752;2023-07-31T11:32:27;0.40;;;0.30;;
53710;SDS011;39605;52.704;6.752;2023-07-31T11:34:54;0.38;;;0.30;;
53710;SDS011;39605;52.704;6.752;2023-07-31T11:37:20;0.65;;;0.50;;
53710;SDS011;39605;52.704;6.752;2023-07-31T11:39:59;0.70;;;0.50;;
53710;SDS011;39605;52.704;6.752;2023-07-31T11:42:25;0.50;;;0.40;;
53710;SDS011;39605;52.704;6.752;2023-07-31T11:44:51;1.15;;;0.70;;
53710;SDS011;39605;52.704;6.752;2023-07-31T11:47:17;0.73;;;0.63;;
53710;SDS011;39605;52.704;6.752;2023-07-31T11:49:44;1.30;;;0.75;;
53710;SDS011;39605;52.704;6.752;2023-07-31T11:52:10;1.23;;;0.60;;
53710;SDS011;39605;52.704;6.752;2023-07-31T11:54:37;1.00;;;0.75;;
53710;SDS011;39605;52.704;6.752;2023-07-31T11:57:03;0.90;;;0.60;;
53710;SDS011;39605;52.704;6.752;2023-07-31T11:59:30;0.55;;;0.52;;
53710;SDS011;39605;52.704;6.752;2023-07-31T12:01:56;0.65;;;0.65;;
53710;SDS011;39605;52.704;6.752;2023-07-31T12:04:23;0.88;;;0.50;;
53710;SDS011;39605;52.704;6.752;2023-07-31T12:06:52;0.70;;;0.52;;
53710;SDS011;39605;52.704;6.752;2023-07-31T12:09:18;1.05;;;0.40;;
53710;SDS011;39605;52.704;6.752;2023-07-31T12:11:45;0.40;;;0.40;;
53710;SDS011;39605;52.704;6.752;2023-07-31T12:14:24;2.10;;;0.80;;
53710;SDS011;39605;52.704;6.752;2023-07-31T12:16:54;0.73;;;0.73;;
53710;SDS011;39605;52.704;6.752;2023-07-31T12:19:21;1.48;;;1.38;;
53710;SDS011;39605;52.704;6.752;2023-07-31T12:21:47;4.00;;;2.17;;
53710;SDS011;39605;52.704;6.752;2023-07-31T12:24:13;2.67;;;2.42;;
53710;SDS011;39605;52.704;6.752;2023-07-31T12:26:39;2.85;;;2.67;;
53710;SDS011;39605;52.704;6.752;2023-07-31T12:29:07;2.72;;;2.53;;
53710;SDS011;39605;52.704;6.752;2023-07-31T12:31:33;3.42;;;3.22;;
53710;SDS011;39605;52.704;6.752;2023-07-31T12:34:00;4.80;;;3.75;;
53710;SDS011;39605;52.704;6.752;2023-07-31T12:36:28;3.78;;;3.58;;
53710;SDS011;39605;52.704;6.752;2023-07-31T12:38:57;3.55;;;3.22;;
53710;SDS011;39605;52.704;6.752;2023-07-31T12:41:23;3.28;;;3.08;;
53710;SDS011;39605;52.704;6.752;2023-07-31T12:43:50;3.42;;;3.22;;
53710;SDS011;39605;52.704;6.752;2023-07-31T12:46:16;3.03;;;2.80;;
53710;SDS011;39605;52.704;6.752;2023-07-31T12:48:42;3.10;;;2.92;;
53710;SDS011;39605;52.704;6.752;2023-07-31T12:51:08;3.72;;;3.53;;
53710;SDS011;39605;52.704;6.752;2023-07-31T12:53:34;3.53;;;3.33;;
53710;SDS011;39605;52.704;6.752;2023-07-31T12:56:00;1.85;;;1.65;;
53710;SDS011;39605;52.704;6.752;2023-07-31T12:58:27;1.50;;;0.85;;
53710;SDS011;39605;52.704;6.752;2023-07-31T13:00:53;0.68;;;0.45;;
53710;SDS011;39605;52.704;6.752;2023-07-31T13:03:19;0.50;;;0.30;;
53710;SDS011;39605;52.704;6.752;2023-07-31T13:05:45;0.17;;;0.10;;
53710;SDS011;39605;52.704;6.752;2023-07-31T13:08:11;0.70;;;0.30;;
53710;SDS011;39605;52.704;6.752;2023-07-31T13:10:37;1.10;;;0.40;;
53710;SDS011;39605;52.704;6.752;2023-07-31T13:13:03;0.88;;;0.40;;
53710;SDS011;39605;52.704;6.752;2023-07-31T13:15:29;2.78;;;0.55;;
53710;SDS011;39605;52.704;6.752;2023-07-31T13:17:55;1.30;;;0.77;;
53710;SDS011;39605;52.704;6.752;2023-07-31T13:20:21;1.30;;;0.73;;
53710;SDS011;39605;52.704;6.752;2023-07-31T13:22:47;1.65;;;0.70;;
53710;SDS011;39605;52.704;6.752;2023-07-31T13:25:14;2.35;;;0.60;;
53710;SDS011;39605;52.704;6.752;2023-07-31T13:27:40;1.38;;;1.00;;
53710;SDS011;39605;52.704;6.752;2023-07-31T13:30:06;2.80;;;0.75;;
53710;SDS011;39605;52.704;6.752;2023-07-31T13:32:32;2.45;;;0.80;;
53710;SDS011;39605;52.704;6.752;2023-07-31T13:34:58;1.58;;;0.85;;
53710;SDS011;39605;52.704;6.752;2023-07-31T13:37:24;1.52;;;1.10;;
53710;SDS011;39605;52.704;6.752;2023-07-31T13:39:51;0.85;;;0.70;;
53710;SDS011;39605;52.704;6.752;2023-07-31T13:42:17;1.48;;;0.38;;
53710;SDS011;39605;52.704;6.752;2023-07-31T13:44:43;0.95;;;0.50;;
53710;SDS011;39605;52.704;6.752;2023-07-31T13:47:09;56.70;;;3.90;;
53710;SDS011;39605;52.704;6.752;2023-07-31T13:49:35;2.08;;;0.95;;
53710;SDS011;39605;52.704;6.752;2023-07-31T13:52:02;1.42;;;0.70;;
53710;SDS011;39605;52.704;6.752;2023-07-31T13:54:28;1.75;;;0.82;;
53710;SDS011;39605;52.704;6.752;2023-07-31T13:56:54;1.20;;;0.50;;
53710;SDS011;39605;52.704;6.752;2023-07-31T13:59:21;2.22;;;0.63;;
53710;SDS011;39605;52.704;6.752;2023-07-31T14:01:47;0.80;;;0.43;;
53710;SDS011;39605;52.704;6.752;2023-07-31T14:04:15;0.95;;;0.45;;
53710;SDS011;39605;52.704;6.752;2023-07-31T14:06:42;0.70;;;0.30;;
53710;SDS011;39605;52.704;6.752;2023-07-31T14:09:14;0.75;;;0.40;;
53710;SDS011;39605;52.704;6.752;2023-07-31T14:11:40;1.20;;;0.30;;
53710;SDS011;39605;52.704;6.752;2023-07-31T14:14:07;0.68;;;0.28;;
53710;SDS011;39605;52.704;6.752;2023-07-31T14:16:34;0.90;;;0.30;;
53710;SDS011;39605;52.704;6.752;2023-07-31T14:19:00;2.30;;;0.47;;
53710;SDS011;39605;52.704;6.752;2023-07-31T14:21:26;1.30;;;0.28;;
53710;SDS011;39605;52.704;6.752;2023-07-31T14:23:52;0.60;;;0.40;;
53710;SDS011;39605;52.704;6.752;2023-07-31T14:26:18;0.80;;;0.30;;
53710;SDS011;39605;52.704;6.752;2023-07-31T14:28:44;1.95;;;0.28;;
53710;SDS011;39605;52.704;6.752;2023-07-31T14:31:10;0.50;;;0.20;;
53710;SDS011;39605;52.704;6.752;2023-07-31T14:33:36;1.85;;;0.77;;
53710;SDS011;39605;52.704;6.752;2023-07-31T14:36:03;1.10;;;0.70;;
53710;SDS011;39605;52.704;6.752;2023-07-31T14:38:29;1.92;;;0.80;;
53710;SDS011;39605;52.704;6.752;2023-07-31T14:40:55;2.10;;;0.75;;
53710;SDS011;39605;52.704;6.752;2023-07-31T14:43:21;2.25;;;0.60;;
53710;SDS011;39605;52.704;6.752;2023-07-31T14:45:47;1.13;;;0.52;;
53710;SDS011;39605;52.704;6.752;2023-07-31T14:48:14;1.85;;;0.60;;
53710;SDS011;39605;52.704;6.752;2023-07-31T14:50:40;0.88;;;0.80;;